Aérodrome :
LOGIN :

S'inscrire | Disclaimer

   EN    FR    IT 

 










Légende :    VFR   VFR Marginal   IFR   IFR Intensif   IFR Très Intensif
Visi : 
Plafond : 
>= 8 km
>= 3000ft
5 à 8 km
1000 à 3000 ft
1500m à 5 km
500 à 1000 ft
800 à 1500m
200 à 500 ft
< 800m
< 200 ft
Symboles :   Orages  Brouillard  Fortes neiges  Fortes précipitations  Vent > 20 kt
SIGMETs :   Divers  Orages  Givrage  Turbulence  Onde Orograph.  Cendres Volcan.







- Altitude de l'aérodrome : 53 ft
- Code IATA : HAM


EDDH - Hamburg

DERNIER METAR :
  • 191850Z 27003KT 9999 VCSH FEW015 FEW020CB BKN080 11/10 Q1017 RERA TEMPO SHRA

METARs EXPIRÉS :
  • 191820Z 30012G23KT 270V330 4000 +SHRA FEW014 BKN019CB 12/11 Q1017 BECMG 9999 NSW
  • 191750Z 25005KT 9999 -SHRA FEW020CB BKN080 13/10 Q1016 TEMPO 4000 SHRA BKN020CB
  • 191720Z 25004KT 9999 FEW025 SCT070 13/10 Q1016 TEMPO SHRA BKN020CB
  • 191650Z 26004KT 9999 FEW025 SCT075 13/09 Q1016 NOSIG
  • 191620Z 27007KT 9999 FEW026 SCT074 15/09 Q1016 NOSIG
  • 191550Z 26008KT 230V300 9999 VCSH FEW026 SCT074 15/10 Q1016 NOSIG

TAF TAF EDDH
Valide du 19 à 18h jusqu'au 21 à 00h UTC


191700Z 1918/2024 26005KT 9999 FEW030
PROB30
TEMPO 1918/1920 SHRA BKN020CB
BECMG 2002/2005 BKN012
PROB30
TEMPO 2004/2009 4000 -DZRA BKN007
BECMG 2007/2009 26010KT BKN025
TEMPO 2009/2013 BKN012
BECMG 2016/2018 23004KT
Pas de NOTAMs connus pour ce terrain.



MET'MAP, la Météo Aéronautique d'un coup d'oeil ! - Copyright ORBIFLY Décembre 2007 - Disclaimer

ORBIFLY MET'MAP TEAM :

Programmation & Développement : Alexandra Zaïnal
Conception & Développement : Baudouin d'Aumeries
Co-Programmation & Développement : Marc-Olivier Méhu
Soutien technique & logistique : Manuel Goepfert

Contact : metmap@orbifly.com




SOURCES & CREDITS :

   NOAA